sensor_id;sensor_type;location;lat;lon;timestamp;temperature;humidity
68439;SHT31;55421;51.600;5.718;2022-07-29T00:02:18;19.44;54.48
68439;SHT31;55421;51.600;5.718;2022-07-29T00:04:44;19.42;54.63
68439;SHT31;55421;51.600;5.718;2022-07-29T00:07:11;19.41;54.80
68439;SHT31;55421;51.600;5.718;2022-07-29T00:09:37;19.39;54.81
68439;SHT31;55421;51.600;5.718;2022-07-29T00:12:04;19.36;54.88
68439;SHT31;55421;51.600;5.718;2022-07-29T00:14:30;19.34;54.91
68439;SHT31;55421;51.600;5.718;2022-07-29T00:16:57;19.34;54.87
68439;SHT31;55421;51.600;5.718;2022-07-29T00:19:23;19.35;54.84
68439;SHT31;55421;51.600;5.718;2022-07-29T00:21:50;19.37;54.80
68439;SHT31;55421;51.600;5.718;2022-07-29T00:24:16;19.39;54.85
68439;SHT31;55421;51.600;5.718;2022-07-29T00:26:42;19.41;54.89
68439;SHT31;55421;51.600;5.718;2022-07-29T00:29:09;19.39;54.81
68439;SHT31;55421;51.600;5.718;2022-07-29T00:31:35;19.41;55.05
68439;SHT31;55421;51.600;5.718;2022-07-29T00:34:02;19.39;55.29
68439;SHT31;55421;51.600;5.718;2022-07-29T00:36:29;19.39;55.64
68439;SHT31;55421;51.600;5.718;2022-07-29T00:38:55;19.36;56.34
68439;SHT31;55421;51.600;5.718;2022-07-29T00:41:21;19.34;57.35
68439;SHT31;55421;51.600;5.718;2022-07-29T00:43:48;19.31;58.20
68439;SHT31;55421;51.600;5.718;2022-07-29T00:46:14;19.25;58.66
68439;SHT31;55421;51.600;5.718;2022-07-29T00:48:41;19.22;59.05
68439;SHT31;55421;51.600;5.718;2022-07-29T00:51:07;19.17;59.69
68439;SHT31;55421;51.600;5.718;2022-07-29T00:53:36;19.14;60.12
68439;SHT31;55421;51.600;5.718;2022-07-29T00:56:02;19.10;60.28
68439;SHT31;55421;51.600;5.718;2022-07-29T00:58:29;19.06;60.61
68439;SHT31;55421;51.600;5.718;2022-07-29T01:00:57;19.02;60.66
68439;SHT31;55421;51.600;5.718;2022-07-29T01:03:24;18.96;60.39
68439;SHT31;55421;51.600;5.718;2022-07-29T01:05:50;18.90;60.48
68439;SHT31;55421;51.600;5.718;2022-07-29T01:08:18;18.85;62.28
68439;SHT31;55421;51.600;5.718;2022-07-29T01:10:46;18.82;63.23
68439;SHT31;55421;51.600;5.718;2022-07-29T01:13:14;18.80;63.89
68439;SHT31;55421;51.600;5.718;2022-07-29T01:15:52;18.76;64.34
68439;SHT31;55421;51.600;5.718;2022-07-29T01:18:32;18.73;64.44
68439;SHT31;55421;51.600;5.718;2022-07-29T01:30:14;18.53;64.59
68439;SHT31;55421;51.600;5.718;2022-07-29T01:32:41;18.54;64.40
68439;SHT31;55421;51.600;5.718;2022-07-29T01:35:19;18.54;64.58
68439;SHT31;55421;51.600;5.718;2022-07-29T01:40:46;18.52;65.13
68439;SHT31;55421;51.600;5.718;2022-07-29T01:43:27;18.51;65.34
68439;SHT31;55421;51.600;5.718;2022-07-29T01:46:15;18.51;65.69
68439;SHT31;55421;51.600;5.718;2022-07-29T01:48:53;18.50;66.39
68439;SHT31;55421;51.600;5.718;2022-07-29T01:51:31;18.43;66.79
68439;SHT31;55421;51.600;5.718;2022-07-29T01:54:25;18.34;66.95
68439;SHT31;55421;51.600;5.718;2022-07-29T01:57:04;18.25;67.05
68439;SHT31;55421;51.600;5.718;2022-07-29T01:59:35;18.23;67.34
68439;SHT31;55421;51.600;5.718;2022-07-29T02:02:03;18.18;67.45
68439;SHT31;55421;51.600;5.718;2022-07-29T02:04:34;18.14;67.72
68439;SHT31;55421;51.600;5.718;2022-07-29T02:07:04;18.08;67.97
68439;SHT31;55421;51.600;5.718;2022-07-29T02:09:36;18.00;68.04
68439;SHT31;55421;51.600;5.718;2022-07-29T02:12:06;17.93;68.10
68439;SHT31;55421;51.600;5.718;2022-07-29T02:14:36;17.87;68.16
68439;SHT31;55421;51.600;5.718;2022-07-29T02:17:10;17.82;68.38
68439;SHT31;55421;51.600;5.718;2022-07-29T02:19:39;17.77;68.79
68439;SHT31;55421;51.600;5.718;2022-07-29T02:22:09;17.72;68.88
68439;SHT31;55421;51.600;5.718;2022-07-29T02:24:37;17.63;69.20
68439;SHT31;55421;51.600;5.718;2022-07-29T02:27:06;17.57;69.32
68439;SHT31;55421;51.600;5.718;2022-07-29T02:29:35;17.52;69.39
68439;SHT31;55421;51.600;5.718;2022-07-29T02:32:05;17.51;69.67
68439;SHT31;55421;51.600;5.718;2022-07-29T02:34:38;17.49;69.55
68439;SHT31;55421;51.600;5.718;2022-07-29T02:37:08;17.48;69.82
68439;SHT31;55421;51.600;5.718;2022-07-29T02:39:37;17.49;69.91
68439;SHT31;55421;51.600;5.718;2022-07-29T02:42:10;17.51;70.00
68439;SHT31;55421;51.600;5.718;2022-07-29T02:44:41;17.52;70.43
68439;SHT31;55421;51.600;5.718;2022-07-29T02:50:04;17.45;70.48
68439;SHT31;55421;51.600;5.718;2022-07-29T02:52:42;17.36;70.49
68439;SHT31;55421;51.600;5.718;2022-07-29T02:55:19;17.28;70.84
68439;SHT31;55421;51.600;5.718;2022-07-29T03:01:04;17.24;71.03
68439;SHT31;55421;51.600;5.718;2022-07-29T03:03:39;17.20;70.85
68439;SHT31;55421;51.600;5.718;2022-07-29T03:06:12;17.16;71.61
68439;SHT31;55421;51.600;5.718;2022-07-29T03:08:42;17.17;71.68
68439;SHT31;55421;51.600;5.718;2022-07-29T03:11:11;17.20;71.50
68439;SHT31;55421;51.600;5.718;2022-07-29T03:13:39;17.22;71.40
68439;SHT31;55421;51.600;5.718;2022-07-29T03:16:07;17.23;71.33
68439;SHT31;55421;51.600;5.718;2022-07-29T03:18:35;17.22;71.60
68439;SHT31;55421;51.600;5.718;2022-07-29T03:21:03;17.19;71.49
68439;SHT31;55421;51.600;5.718;2022-07-29T03:23:30;17.18;71.40
68439;SHT31;55421;51.600;5.718;2022-07-29T03:25:56;17.18;71.31
68439;SHT31;55421;51.600;5.718;2022-07-29T03:28:23;17.18;71.40
68439;SHT31;55421;51.600;5.718;2022-07-29T03:30:49;17.22;71.56
68439;SHT31;55421;51.600;5.718;2022-07-29T03:33:16;17.24;71.40
68439;SHT31;55421;51.600;5.718;2022-07-29T03:35:42;17.24;71.25
68439;SHT31;55421;51.600;5.718;2022-07-29T03:38:09;17.24;71.39
68439;SHT31;55421;51.600;5.718;2022-07-29T03:40:36;17.27;72.25
68439;SHT31;55421;51.600;5.718;2022-07-29T03:43:09;17.31;72.77
68439;SHT31;55421;51.600;5.718;2022-07-29T03:45:37;17.34;72.39
68439;SHT31;55421;51.600;5.718;2022-07-29T03:48:09;17.37;72.32
68439;SHT31;55421;51.600;5.718;2022-07-29T03:50:40;17.38;71.96
68439;SHT31;55421;51.600;5.718;2022-07-29T03:53:09;17.38;71.87
68439;SHT31;55421;51.600;5.718;2022-07-29T03:55:36;17.39;71.68
68439;SHT31;55421;51.600;5.718;2022-07-29T03:58:10;17.41;71.73
68439;SHT31;55421;51.600;5.718;2022-07-29T04:00:39;17.43;71.89
68439;SHT31;55421;51.600;5.718;2022-07-29T04:03:07;17.45;71.66
68439;SHT31;55421;51.600;5.718;2022-07-29T04:05:34;17.43;71.47
68439;SHT31;55421;51.600;5.718;2022-07-29T04:08:01;17.41;71.53
68439;SHT31;55421;51.600;5.718;2022-07-29T04:10:27;17.42;71.75
68439;SHT31;55421;51.600;5.718;2022-07-29T04:12:54;17.44;71.87
68439;SHT31;55421;51.600;5.718;2022-07-29T04:15:20;17.46;71.72
68439;SHT31;55421;51.600;5.718;2022-07-29T04:17:47;17.47;71.73
68439;SHT31;55421;51.600;5.718;2022-07-29T04:20:13;17.45;71.69
68439;SHT31;55421;51.600;5.718;2022-07-29T04:22:40;17.38;72.02
68439;SHT31;55421;51.600;5.718;2022-07-29T04:25:07;17.33;72.84
68439;SHT31;55421;51.600;5.718;2022-07-29T04:27:34;17.32;72.58
68439;SHT31;55421;51.600;5.718;2022-07-29T04:30:00;17.31;72.33
68439;SHT31;55421;51.600;5.718;2022-07-29T04:32:27;17.27;72.70
68439;SHT31;55421;51.600;5.718;2022-07-29T04:34:53;17.22;72.96
68439;SHT31;55421;51.600;5.718;2022-07-29T04:37:20;17.19;73.37
68439;SHT31;55421;51.600;5.718;2022-07-29T04:39:46;17.17;73.48
68439;SHT31;55421;51.600;5.718;2022-07-29T04:42:13;17.21;73.21
68439;SHT31;55421;51.600;5.718;2022-07-29T04:44:39;17.23;73.00
68439;SHT31;55421;51.600;5.718;2022-07-29T04:47:07;17.24;73.08
68439;SHT31;55421;51.600;5.718;2022-07-29T04:49:37;17.22;73.29
68439;SHT31;55421;51.600;5.718;2022-07-29T04:52:05;17.20;73.39
68439;SHT31;55421;51.600;5.718;2022-07-29T04:54:32;17.19;73.57
68439;SHT31;55421;51.600;5.718;2022-07-29T04:56:59;17.18;73.69
68439;SHT31;55421;51.600;5.718;2022-07-29T04:59:25;17.20;73.64
68439;SHT31;55421;51.600;5.718;2022-07-29T05:01:52;17.23;73.48
68439;SHT31;55421;51.600;5.718;2022-07-29T05:04:18;17.23;73.17
68439;SHT31;55421;51.600;5.718;2022-07-29T05:06:45;17.20;72.98
68439;SHT31;55421;51.600;5.718;2022-07-29T05:09:11;17.14;72.91
68439;SHT31;55421;51.600;5.718;2022-07-29T05:11:38;17.10;72.98
68439;SHT31;55421;51.600;5.718;2022-07-29T05:14:04;17.10;73.04
68439;SHT31;55421;51.600;5.718;2022-07-29T05:16:30;17.11;73.12
68439;SHT31;55421;51.600;5.718;2022-07-29T05:18:57;17.10;73.00
68439;SHT31;55421;51.600;5.718;2022-07-29T05:21:23;17.07;72.99
68439;SHT31;55421;51.600;5.718;2022-07-29T05:23:50;17.05;73.26
68439;SHT31;55421;51.600;5.718;2022-07-29T05:26:16;17.04;73.50
68439;SHT31;55421;51.600;5.718;2022-07-29T05:28:43;17.07;73.56
68439;SHT31;55421;51.600;5.718;2022-07-29T05:31:09;17.09;73.26
68439;SHT31;55421;51.600;5.718;2022-07-29T05:33:35;17.11;73.04
68439;SHT31;55421;51.600;5.718;2022-07-29T05:36:05;17.13;72.96
68439;SHT31;55421;51.600;5.718;2022-07-29T05:38:33;17.11;72.81
68439;SHT31;55421;51.600;5.718;2022-07-29T05:41:00;17.08;72.80
68439;SHT31;55421;51.600;5.718;2022-07-29T05:43:27;17.02;72.83
68439;SHT31;55421;51.600;5.718;2022-07-29T05:45:54;16.96;73.04
68439;SHT31;55421;51.600;5.718;2022-07-29T05:48:21;16.93;73.20
68439;SHT31;55421;51.600;5.718;2022-07-29T05:50:48;16.90;73.21
68439;SHT31;55421;51.600;5.718;2022-07-29T05:53:14;16.86;73.31
68439;SHT31;55421;51.600;5.718;2022-07-29T05:55:42;16.84;73.33
68439;SHT31;55421;51.600;5.718;2022-07-29T05:58:08;16.86;73.40
68439;SHT31;55421;51.600;5.718;2022-07-29T06:00:34;16.87;73.57
68439;SHT31;55421;51.600;5.718;2022-07-29T06:03:01;16.90;73.60
68439;SHT31;55421;51.600;5.718;2022-07-29T06:05:27;16.88;73.62
68439;SHT31;55421;51.600;5.718;2022-07-29T06:07:54;16.86;73.71
68439;SHT31;55421;51.600;5.718;2022-07-29T06:10:20;16.85;73.81
68439;SHT31;55421;51.600;5.718;2022-07-29T06:12:46;16.84;73.91
68439;SHT31;55421;51.600;5.718;2022-07-29T06:15:13;16.84;73.95
68439;SHT31;55421;51.600;5.718;2022-07-29T06:17:39;16.86;73.88
68439;SHT31;55421;51.600;5.718;2022-07-29T06:20:06;16.87;73.78
68439;SHT31;55421;51.600;5.718;2022-07-29T06:22:33;16.90;73.58
68439;SHT31;55421;51.600;5.718;2022-07-29T06:25:00;16.93;73.31
68439;SHT31;55421;51.600;5.718;2022-07-29T06:27:28;16.95;73.11
68439;SHT31;55421;51.600;5.718;2022-07-29T06:29:55;16.99;73.00
68439;SHT31;55421;51.600;5.718;2022-07-29T06:32:23;17.02;73.13
68439;SHT31;55421;51.600;5.718;2022-07-29T06:34:49;17.06;73.18
68439;SHT31;55421;51.600;5.718;2022-07-29T06:37:16;17.11;72.97
68439;SHT31;55421;51.600;5.718;2022-07-29T06:39:45;17.16;73.00
68439;SHT31;55421;51.600;5.718;2022-07-29T06:42:11;17.17;72.79
68439;SHT31;55421;51.600;5.718;2022-07-29T06:44:38;17.15;72.68
68439;SHT31;55421;51.600;5.718;2022-07-29T06:47:04;17.14;72.69
68439;SHT31;55421;51.600;5.718;2022-07-29T06:49:31;17.12;72.82
68439;SHT31;55421;51.600;5.718;2022-07-29T06:51:57;17.15;73.03
68439;SHT31;55421;51.600;5.718;2022-07-29T06:54:23;17.14;72.92
68439;SHT31;55421;51.600;5.718;2022-07-29T06:56:50;17.17;72.95
68439;SHT31;55421;51.600;5.718;2022-07-29T06:59:16;17.14;72.89
68439;SHT31;55421;51.600;5.718;2022-07-29T07:01:43;17.11;73.04
68439;SHT31;55421;51.600;5.718;2022-07-29T07:04:10;17.13;73.12
68439;SHT31;55421;51.600;5.718;2022-07-29T07:06:37;17.16;73.10
68439;SHT31;55421;51.600;5.718;2022-07-29T07:09:05;17.16;72.99
68439;SHT31;55421;51.600;5.718;2022-07-29T07:11:32;17.17;73.02
68439;SHT31;55421;51.600;5.718;2022-07-29T07:13:59;17.18;73.08
68439;SHT31;55421;51.600;5.718;2022-07-29T07:16:26;17.23;73.07
68439;SHT31;55421;51.600;5.718;2022-07-29T07:18:52;17.27;72.79
68439;SHT31;55421;51.600;5.718;2022-07-29T07:21:19;17.28;72.62
68439;SHT31;55421;51.600;5.718;2022-07-29T07:23:46;17.30;72.51
68439;SHT31;55421;51.600;5.718;2022-07-29T07:26:12;17.30;72.34
68439;SHT31;55421;51.600;5.718;2022-07-29T07:28:38;17.30;72.24
68439;SHT31;55421;51.600;5.718;2022-07-29T07:31:05;17.33;72.21
68439;SHT31;55421;51.600;5.718;2022-07-29T07:33:32;17.37;72.17
68439;SHT31;55421;51.600;5.718;2022-07-29T07:35:58;17.38;72.11
68439;SHT31;55421;51.600;5.718;2022-07-29T07:38:24;17.42;72.25
68439;SHT31;55421;51.600;5.718;2022-07-29T07:40:51;17.45;72.40
68439;SHT31;55421;51.600;5.718;2022-07-29T07:43:17;17.53;72.60
68439;SHT31;55421;51.600;5.718;2022-07-29T07:45:44;17.60;72.34
68439;SHT31;55421;51.600;5.718;2022-07-29T07:48:10;17.68;72.28
68439;SHT31;55421;51.600;5.718;2022-07-29T07:50:37;17.73;71.90
68439;SHT31;55421;51.600;5.718;2022-07-29T07:53:03;17.73;71.61
68439;SHT31;55421;51.600;5.718;2022-07-29T07:55:30;17.71;71.18
68439;SHT31;55421;51.600;5.718;2022-07-29T07:57:56;17.68;71.28
68439;SHT31;55421;51.600;5.718;2022-07-29T08:00:23;17.66;71.41
68439;SHT31;55421;51.600;5.718;2022-07-29T08:02:49;17.72;71.28
68439;SHT31;55421;51.600;5.718;2022-07-29T08:05:16;17.83;71.13
68439;SHT31;55421;51.600;5.718;2022-07-29T08:07:44;17.97;71.06
68439;SHT31;55421;51.600;5.718;2022-07-29T08:10:14;18.12;70.77
68439;SHT31;55421;51.600;5.718;2022-07-29T08:13:03;18.24;70.45
68439;SHT31;55421;51.600;5.718;2022-07-29T08:15:31;18.32;70.20
68439;SHT31;55421;51.600;5.718;2022-07-29T08:17:58;18.48;70.04
68439;SHT31;55421;51.600;5.718;2022-07-29T08:20:25;18.67;69.71
68439;SHT31;55421;51.600;5.718;2022-07-29T08:22:52;18.92;69.14
68439;SHT31;55421;51.600;5.718;2022-07-29T08:25:19;19.15;68.77
68439;SHT31;55421;51.600;5.718;2022-07-29T08:27:46;19.33;68.28
68439;SHT31;55421;51.600;5.718;2022-07-29T08:30:13;19.47;68.18
68439;SHT31;55421;51.600;5.718;2022-07-29T08:32:40;19.64;68.07
68439;SHT31;55421;51.600;5.718;2022-07-29T08:35:07;19.80;68.02
68439;SHT31;55421;51.600;5.718;2022-07-29T08:37:36;20.04;67.82
68439;SHT31;55421;51.600;5.718;2022-07-29T08:40:03;20.25;66.88
68439;SHT31;55421;51.600;5.718;2022-07-29T08:42:30;20.40;66.36
68439;SHT31;55421;51.600;5.718;2022-07-29T08:44:56;20.51;65.78
68439;SHT31;55421;51.600;5.718;2022-07-29T08:47:25;20.57;65.00
68439;SHT31;55421;51.600;5.718;2022-07-29T08:49:53;20.63;64.79
68439;SHT31;55421;51.600;5.718;2022-07-29T08:52:20;20.71;64.99
68439;SHT31;55421;51.600;5.718;2022-07-29T08:54:52;20.83;64.79
68439;SHT31;55421;51.600;5.718;2022-07-29T08:57:19;20.96;64.82
68439;SHT31;55421;51.600;5.718;2022-07-29T08:59:47;21.08;64.67
68439;SHT31;55421;51.600;5.718;2022-07-29T09:02:20;21.20;64.52
68439;SHT31;55421;51.600;5.718;2022-07-29T09:04:48;21.30;63.88
68439;SHT31;55421;51.600;5.718;2022-07-29T09:07:16;21.35;63.61
68439;SHT31;55421;51.600;5.718;2022-07-29T09:09:44;21.38;63.42
68439;SHT31;55421;51.600;5.718;2022-07-29T09:12:11;21.43;63.27
68439;SHT31;55421;51.600;5.718;2022-07-29T09:14:38;21.50;63.13
68439;SHT31;55421;51.600;5.718;2022-07-29T09:17:06;21.56;63.09
68439;SHT31;55421;51.600;5.718;2022-07-29T09:19:34;21.63;63.14
68439;SHT31;55421;51.600;5.718;2022-07-29T09:22:03;21.74;63.00
68439;SHT31;55421;51.600;5.718;2022-07-29T09:24:45;21.81;62.52
68439;SHT31;55421;51.600;5.718;2022-07-29T09:27:23;21.88;62.48
68439;SHT31;55421;51.600;5.718;2022-07-29T09:29:58;21.99;62.43
68439;SHT31;55421;51.600;5.718;2022-07-29T09:32:33;22.06;61.89
68439;SHT31;55421;51.600;5.718;2022-07-29T09:35:22;22.13;61.67
68439;SHT31;55421;51.600;5.718;2022-07-29T09:37:51;22.20;61.64
68439;SHT31;55421;51.600;5.718;2022-07-29T09:40:19;22.28;61.43
68439;SHT31;55421;51.600;5.718;2022-07-29T09:42:51;22.35;61.08
68439;SHT31;55421;51.600;5.718;2022-07-29T09:45:31;22.44;61.05
68439;SHT31;55421;51.600;5.718;2022-07-29T09:48:12;22.52;60.55
68439;SHT31;55421;51.600;5.718;2022-07-29T09:50:42;22.56;60.23
68439;SHT31;55421;51.600;5.718;2022-07-29T09:53:10;22.61;59.99
68439;SHT31;55421;51.600;5.718;2022-07-29T09:55:49;22.68;59.90
68439;SHT31;55421;51.600;5.718;2022-07-29T09:58:18;22.77;59.30
68439;SHT31;55421;51.600;5.718;2022-07-29T10:00:47;22.86;59.10
68439;SHT31;55421;51.600;5.718;2022-07-29T10:03:15;22.94;58.69
68439;SHT31;55421;51.600;5.718;2022-07-29T10:05:43;23.00;58.77
68439;SHT31;55421;51.600;5.718;2022-07-29T10:08:11;23.12;58.86
68439;SHT31;55421;51.600;5.718;2022-07-29T10:10:39;23.25;58.67
68439;SHT31;55421;51.600;5.718;2022-07-29T10:13:09;23.37;58.53
68439;SHT31;55421;51.600;5.718;2022-07-29T10:15:39;23.47;57.78
68439;SHT31;55421;51.600;5.718;2022-07-29T10:18:10;23.52;57.71
68439;SHT31;55421;51.600;5.718;2022-07-29T10:20:39;23.62;57.70
68439;SHT31;55421;51.600;5.718;2022-07-29T10:23:06;23.71;57.00
68439;SHT31;55421;51.600;5.718;2022-07-29T10:25:34;23.79;56.83
68439;SHT31;55421;51.600;5.718;2022-07-29T10:28:01;23.88;56.57
68439;SHT31;55421;51.600;5.718;2022-07-29T10:30:27;23.97;56.38
68439;SHT31;55421;51.600;5.718;2022-07-29T10:44:50;24.19;54.80
68439;SHT31;55421;51.600;5.718;2022-07-29T10:47:20;24.27;54.97
68439;SHT31;55421;51.600;5.718;2022-07-29T10:49:57;24.41;55.36
68439;SHT31;55421;51.600;5.718;2022-07-29T10:58:20;24.71;54.09
68439;SHT31;55421;51.600;5.718;2022-07-29T11:00:50;24.75;53.31
68439;SHT31;55421;51.600;5.718;2022-07-29T11:06:07;24.83;53.28
68439;SHT31;55421;51.600;5.718;2022-07-29T11:08:34;24.90;53.02
68439;SHT31;55421;51.600;5.718;2022-07-29T11:13:45;25.06;52.58
68439;SHT31;55421;51.600;5.718;2022-07-29T11:16:17;25.17;52.36
68439;SHT31;55421;51.600;5.718;2022-07-29T11:21:36;25.36;51.97
68439;SHT31;55421;51.600;5.718;2022-07-29T11:24:11;25.47;52.13
68439;SHT31;55421;51.600;5.718;2022-07-29T11:26:39;25.53;52.26
68439;SHT31;55421;51.600;5.718;2022-07-29T11:29:14;25.58;51.60
68439;SHT31;55421;51.600;5.718;2022-07-29T11:31:47;25.59;51.34
68439;SHT31;55421;51.600;5.718;2022-07-29T11:44:58;25.88;50.16
68439;SHT31;55421;51.600;5.718;2022-07-29T11:47:36;25.88;49.66
68439;SHT31;55421;51.600;5.718;2022-07-29T11:50:12;25.84;49.28
68439;SHT31;55421;51.600;5.718;2022-07-29T11:52:43;25.81;49.03
68439;SHT31;55421;51.600;5.718;2022-07-29T11:55:18;25.81;49.37
68439;SHT31;55421;51.600;5.718;2022-07-29T11:57:49;25.85;49.55
68439;SHT31;55421;51.600;5.718;2022-07-29T12:02:53;25.88;49.23
68439;SHT31;55421;51.600;5.718;2022-07-29T12:05:21;25.91;48.86
68439;SHT31;55421;51.600;5.718;2022-07-29T12:08:11;25.92;48.60
68439;SHT31;55421;51.600;5.718;2022-07-29T12:10:40;25.95;48.83
68439;SHT31;55421;51.600;5.718;2022-07-29T12:13:09;26.00;49.01
68439;SHT31;55421;51.600;5.718;2022-07-29T12:15:36;26.03;49.22
68439;SHT31;55421;51.600;5.718;2022-07-29T12:18:18;26.04;48.86
68439;SHT31;55421;51.600;5.718;2022-07-29T12:20:46;26.05;48.91
68439;SHT31;55421;51.600;5.718;2022-07-29T12:23:14;26.06;48.70
68439;SHT31;55421;51.600;5.718;2022-07-29T12:25:43;26.06;48.73
68439;SHT31;55421;51.600;5.718;2022-07-29T12:28:14;26.04;48.73
68439;SHT31;55421;51.600;5.718;2022-07-29T12:30:43;26.06;48.72
68439;SHT31;55421;51.600;5.718;2022-07-29T12:33:18;26.05;47.60
68439;SHT31;55421;51.600;5.718;2022-07-29T12:35:51;26.07;47.70
68439;SHT31;55421;51.600;5.718;2022-07-29T12:38:22;26.08;48.24
68439;SHT31;55421;51.600;5.718;2022-07-29T12:40:48;26.09;48.62
68439;SHT31;55421;51.600;5.718;2022-07-29T12:43:18;26.08;48.02
68439;SHT31;55421;51.600;5.718;2022-07-29T12:45:49;26.06;47.71
68439;SHT31;55421;51.600;5.718;2022-07-29T12:51:03;26.03;47.45
68439;SHT31;55421;51.600;5.718;2022-07-29T12:53:32;26.03;47.14
68439;SHT31;55421;51.600;5.718;2022-07-29T12:55:58;26.05;46.98
68439;SHT31;55421;51.600;5.718;2022-07-29T12:58:31;26.04;46.76
68439;SHT31;55421;51.600;5.718;2022-07-29T13:01:14;26.01;46.81
68439;SHT31;55421;51.600;5.718;2022-07-29T13:06:35;26.02;47.37
68439;SHT31;55421;51.600;5.718;2022-07-29T13:09:14;26.06;47.48
68439;SHT31;55421;51.600;5.718;2022-07-29T13:11:53;26.07;47.89
68439;SHT31;55421;51.600;5.718;2022-07-29T13:14:30;26.12;47.87
68439;SHT31;55421;51.600;5.718;2022-07-29T13:17:06;26.16;47.85
68439;SHT31;55421;51.600;5.718;2022-07-29T13:19:40;26.24;47.85
68439;SHT31;55421;51.600;5.718;2022-07-29T13:22:13;26.29;47.51
68439;SHT31;55421;51.600;5.718;2022-07-29T13:24:47;26.28;47.34
68439;SHT31;55421;51.600;5.718;2022-07-29T13:27:28;26.27;47.33
68439;SHT31;55421;51.600;5.718;2022-07-29T13:29:58;26.16;47.24
68439;SHT31;55421;51.600;5.718;2022-07-29T13:32:28;26.01;47.16
68439;SHT31;55421;51.600;5.718;2022-07-29T13:34:56;25.87;47.30
68439;SHT31;55421;51.600;5.718;2022-07-29T13:37:25;25.76;47.31
68439;SHT31;55421;51.600;5.718;2022-07-29T13:39:55;25.78;47.60
68439;SHT31;55421;51.600;5.718;2022-07-29T13:42:23;25.88;47.94
68439;SHT31;55421;51.600;5.718;2022-07-29T13:44:50;25.99;47.90
68439;SHT31;55421;51.600;5.718;2022-07-29T13:47:18;26.07;47.84
68439;SHT31;55421;51.600;5.718;2022-07-29T13:49:49;26.04;47.73
68439;SHT31;55421;51.600;5.718;2022-07-29T13:52:16;25.94;48.20
68439;SHT31;55421;51.600;5.718;2022-07-29T13:54:43;25.89;47.84
68439;SHT31;55421;51.600;5.718;2022-07-29T13:57:10;25.93;47.61
68439;SHT31;55421;51.600;5.718;2022-07-29T13:59:37;26.00;47.86
68439;SHT31;55421;51.600;5.718;2022-07-29T14:02:09;26.06;47.50
68439;SHT31;55421;51.600;5.718;2022-07-29T14:04:38;26.03;47.15
68439;SHT31;55421;51.600;5.718;2022-07-29T14:07:05;25.98;47.21
68439;SHT31;55421;51.600;5.718;2022-07-29T14:09:32;25.95;47.66
68439;SHT31;55421;51.600;5.718;2022-07-29T14:11:59;25.97;47.86
68439;SHT31;55421;51.600;5.718;2022-07-29T14:14:25;25.96;47.93
68439;SHT31;55421;51.600;5.718;2022-07-29T14:16:52;26.01;47.95
68439;SHT31;55421;51.600;5.718;2022-07-29T14:19:18;26.06;47.37
68439;SHT31;55421;51.600;5.718;2022-07-29T14:21:45;26.07;46.82
68439;SHT31;55421;51.600;5.718;2022-07-29T14:24:11;26.09;46.98
68439;SHT31;55421;51.600;5.718;2022-07-29T14:26:37;26.12;46.75
68439;SHT31;55421;51.600;5.718;2022-07-29T14:29:04;26.08;47.17
68439;SHT31;55421;51.600;5.718;2022-07-29T14:31:30;26.01;46.91
68439;SHT31;55421;51.600;5.718;2022-07-29T14:33:57;25.92;46.80
68439;SHT31;55421;51.600;5.718;2022-07-29T14:36:23;25.81;47.24
68439;SHT31;55421;51.600;5.718;2022-07-29T14:38:49;25.73;46.96
68439;SHT31;55421;51.600;5.718;2022-07-29T14:41:16;25.66;46.81
68439;SHT31;55421;51.600;5.718;2022-07-29T14:43:42;25.62;46.73
68439;SHT31;55421;51.600;5.718;2022-07-29T14:46:09;25.62;47.00
68439;SHT31;55421;51.600;5.718;2022-07-29T14:48:35;25.62;46.90
68439;SHT31;55421;51.600;5.718;2022-07-29T14:51:02;25.63;47.01
68439;SHT31;55421;51.600;5.718;2022-07-29T14:53:28;25.65;47.46
68439;SHT31;55421;51.600;5.718;2022-07-29T14:55:55;25.67;47.38
68439;SHT31;55421;51.600;5.718;2022-07-29T14:58:21;25.66;47.20
68439;SHT31;55421;51.600;5.718;2022-07-29T15:00:48;25.60;47.18
68439;SHT31;55421;51.600;5.718;2022-07-29T15:03:15;25.56;47.52
68439;SHT31;55421;51.600;5.718;2022-07-29T15:05:41;25.54;47.07
68439;SHT31;55421;51.600;5.718;2022-07-29T15:08:07;25.51;46.65
68439;SHT31;55421;51.600;5.718;2022-07-29T15:10:34;25.53;46.21
68439;SHT31;55421;51.600;5.718;2022-07-29T15:13:01;25.55;46.19
68439;SHT31;55421;51.600;5.718;2022-07-29T15:15:28;25.60;46.39
68439;SHT31;55421;51.600;5.718;2022-07-29T15:17:56;25.66;46.16
68439;SHT31;55421;51.600;5.718;2022-07-29T15:20:23;25.69;45.88
68439;SHT31;55421;51.600;5.718;2022-07-29T15:22:55;25.70;46.44
68439;SHT31;55421;51.600;5.718;2022-07-29T15:25:34;25.75;46.55
68439;SHT31;55421;51.600;5.718;2022-07-29T15:28:02;25.77;46.21
68439;SHT31;55421;51.600;5.718;2022-07-29T15:30:33;25.78;45.87
68439;SHT31;55421;51.600;5.718;2022-07-29T15:33:07;25.81;45.72
68439;SHT31;55421;51.600;5.718;2022-07-29T15:35:36;25.80;45.82
68439;SHT31;55421;51.600;5.718;2022-07-29T15:38:03;25.80;46.12
68439;SHT31;55421;51.600;5.718;2022-07-29T15:40:30;25.84;45.96
68439;SHT31;55421;51.600;5.718;2022-07-29T15:42:56;25.86;45.96
68439;SHT31;55421;51.600;5.718;2022-07-29T15:45:26;25.88;46.00
68439;SHT31;55421;51.600;5.718;2022-07-29T15:47:53;25.90;45.88
68439;SHT31;55421;51.600;5.718;2022-07-29T15:50:20;25.89;46.16
68439;SHT31;55421;51.600;5.718;2022-07-29T15:52:47;25.89;46.28
68439;SHT31;55421;51.600;5.718;2022-07-29T15:55:16;25.86;46.59
68439;SHT31;55421;51.600;5.718;2022-07-29T15:57:49;25.83;46.92
68439;SHT31;55421;51.600;5.718;2022-07-29T16:00:16;25.82;47.39
68439;SHT31;55421;51.600;5.718;2022-07-29T16:02:43;25.83;47.55
68439;SHT31;55421;51.600;5.718;2022-07-29T16:05:09;25.88;47.29
68439;SHT31;55421;51.600;5.718;2022-07-29T16:07:36;25.92;46.68
68439;SHT31;55421;51.600;5.718;2022-07-29T16:10:03;25.99;46.56
68439;SHT31;55421;51.600;5.718;2022-07-29T16:12:30;26.09;46.76
68439;SHT31;55421;51.600;5.718;2022-07-29T16:14:56;26.15;46.45
68439;SHT31;55421;51.600;5.718;2022-07-29T16:17:22;26.20;46.51
68439;SHT31;55421;51.600;5.718;2022-07-29T16:19:49;26.24;46.38
68439;SHT31;55421;51.600;5.718;2022-07-29T16:22:16;26.28;46.47
68439;SHT31;55421;51.600;5.718;2022-07-29T16:24:42;26.32;46.70
68439;SHT31;55421;51.600;5.718;2022-07-29T16:27:09;26.35;46.46
68439;SHT31;55421;51.600;5.718;2022-07-29T16:29:35;26.35;46.36
68439;SHT31;55421;51.600;5.718;2022-07-29T16:32:03;26.34;45.99
68439;SHT31;55421;51.600;5.718;2022-07-29T16:34:30;26.33;45.87
68439;SHT31;55421;51.600;5.718;2022-07-29T16:36:57;26.28;45.59
68439;SHT31;55421;51.600;5.718;2022-07-29T16:39:23;26.23;45.42
68439;SHT31;55421;51.600;5.718;2022-07-29T16:41:49;26.17;45.51
68439;SHT31;55421;51.600;5.718;2022-07-29T16:44:16;26.13;45.68